createdAt,value
2023-03-04T00:02:38.149Z,1.8
2023-03-04T00:06:03.328Z,1.9
2023-03-04T00:09:28.522Z,1.9
2023-03-04T00:12:53.748Z,1.83
2023-03-04T00:16:18.889Z,1.74
2023-03-04T00:19:44.038Z,1.71
2023-03-04T00:23:09.216Z,1.73
2023-03-04T00:26:34.443Z,1.67
2023-03-04T00:30:00.582Z,1.67
2023-03-04T00:33:25.716Z,1.61
2023-03-04T00:36:50.891Z,1.67
2023-03-04T00:40:16.063Z,1.78
2023-03-04T00:43:41.227Z,1.85
2023-03-04T00:47:06.422Z,1.84
2023-03-04T00:50:31.558Z,1.77
2023-03-04T00:53:58.175Z,1.74
2023-03-04T00:57:21.938Z,1.75
2023-03-04T01:00:47.104Z,1.73
2023-03-04T01:04:12.302Z,1.77
2023-03-04T01:07:37.424Z,1.83
2023-03-04T01:11:02.601Z,1.89
2023-03-04T01:14:27.776Z,1.97
2023-03-04T01:17:53.054Z,2.09
2023-03-04T01:21:18.178Z,2.07
2023-03-04T01:24:43.305Z,2.05
2023-03-04T01:28:08.510Z,2.09
2023-03-04T01:31:33.655Z,2.13
2023-03-04T01:34:58.847Z,2.19
2023-03-04T01:38:24.055Z,2.21
2023-03-04T01:41:49.205Z,2.21
2023-03-04T01:45:14.392Z,2.19
2023-03-04T01:48:39.566Z,2.17
2023-03-04T01:52:04.704Z,2.22
2023-03-04T01:55:29.896Z,2.31
2023-03-04T01:58:55.042Z,2.35
2023-03-04T02:02:20.225Z,2.3
2023-03-04T02:05:45.380Z,2.26
2023-03-04T02:09:10.593Z,2.19
2023-03-04T02:12:35.755Z,2.19
2023-03-04T02:16:00.933Z,2.28
2023-03-04T02:19:26.106Z,2.35
2023-03-04T02:22:51.273Z,2.33
2023-03-04T02:26:16.417Z,2.25
2023-03-04T02:29:41.664Z,2.23
2023-03-04T02:33:06.791Z,2.2
2023-03-04T02:36:32.034Z,2.2
2023-03-04T02:39:57.200Z,2.2
2023-03-04T02:43:22.373Z,2.24
2023-03-04T02:46:47.630Z,2.26
2023-03-04T02:50:12.712Z,2.28
2023-03-04T02:53:37.945Z,2.34
2023-03-04T02:57:03.120Z,2.36
2023-03-04T03:00:28.264Z,2.38
2023-03-04T03:03:53.425Z,2.41
2023-03-04T03:07:18.545Z,2.48
2023-03-04T03:10:43.709Z,2.5
2023-03-04T03:14:08.908Z,2.49
2023-03-04T03:17:34.052Z,2.45
2023-03-04T03:20:59.247Z,2.42
2023-03-04T03:24:24.369Z,2.44
2023-03-04T03:27:49.539Z,2.5
2023-03-04T03:31:14.727Z,2.55
2023-03-04T03:34:39.889Z,2.54
2023-03-04T03:38:05.083Z,2.52
2023-03-04T03:41:30.266Z,2.49
2023-03-04T03:44:55.436Z,2.49
2023-03-04T03:48:20.590Z,2.47
2023-03-04T03:51:45.756Z,2.48
2023-03-04T03:55:10.985Z,2.49
2023-03-04T03:58:36.112Z,2.49
2023-03-04T04:02:01.400Z,2.49
2023-03-04T04:05:26.438Z,2.5
2023-03-04T04:08:51.615Z,2.54
2023-03-04T04:12:16.773Z,2.57
2023-03-04T04:15:41.913Z,2.59
2023-03-04T04:19:07.132Z,2.64
2023-03-04T04:22:32.296Z,2.73
2023-03-04T04:25:57.491Z,2.77
2023-03-04T04:29:22.755Z,2.77
2023-03-04T04:32:47.860Z,2.73
2023-03-04T04:36:13.030Z,2.71
2023-03-04T04:39:38.213Z,2.64
2023-03-04T04:43:03.393Z,2.64
2023-03-04T04:46:28.619Z,2.65
2023-03-04T04:49:53.718Z,2.67
2023-03-04T04:53:18.893Z,2.71
2023-03-04T04:56:44.108Z,2.69
2023-03-04T05:00:09.265Z,2.68
2023-03-04T05:03:34.503Z,2.68
2023-03-04T05:06:59.622Z,2.65
2023-03-04T05:10:24.803Z,2.64
2023-03-04T05:13:49.981Z,2.64
2023-03-04T05:17:15.158Z,2.64
2023-03-04T05:20:40.354Z,2.67
2023-03-04T05:24:05.493Z,2.67
2023-03-04T05:27:30.659Z,2.68
2023-03-04T05:30:55.863Z,2.67
2023-03-04T05:34:21.010Z,2.65
2023-03-04T05:37:46.189Z,2.63
2023-03-04T05:41:11.343Z,2.65
2023-03-04T05:44:36.551Z,2.7
2023-03-04T05:48:01.687Z,2.69
2023-03-04T05:51:26.843Z,2.7
2023-03-04T05:54:52.039Z,2.7
2023-03-04T05:58:17.205Z,2.73
2023-03-04T06:01:42.378Z,2.79
2023-03-04T06:05:07.542Z,2.8
2023-03-04T06:08:32.715Z,2.79
2023-03-04T06:11:57.985Z,2.74
2023-03-04T06:15:23.093Z,2.67
2023-03-04T06:18:48.603Z,2.63
2023-03-04T06:22:13.791Z,2.61
2023-03-04T06:25:38.991Z,2.64
2023-03-04T06:29:04.181Z,2.64
2023-03-04T06:32:29.421Z,2.67
2023-03-04T06:35:54.628Z,2.76
2023-03-04T06:39:19.730Z,2.83
2023-03-04T06:42:44.956Z,2.86
2023-03-04T06:46:10.157Z,2.88
2023-03-04T06:49:35.309Z,2.88
2023-03-04T06:53:00.552Z,2.91
2023-03-04T06:56:25.745Z,2.93
2023-03-04T06:59:55.199Z,2.89
2023-03-04T07:03:20.384Z,2.87
2023-03-04T07:06:45.518Z,2.89
2023-03-04T07:10:10.703Z,2.93
2023-03-04T07:13:35.824Z,2.96
2023-03-04T07:17:01.032Z,2.99
2023-03-04T07:20:26.233Z,3.03
2023-03-04T07:23:51.450Z,3.06
2023-03-04T07:27:16.572Z,3.07
2023-03-04T07:30:41.740Z,3.06
2023-03-04T07:34:06.926Z,3.07
2023-03-04T07:37:32.134Z,3.07
2023-03-04T07:40:57.292Z,3.14
2023-03-04T07:44:22.449Z,3.18
2023-03-04T07:47:47.595Z,3.24
2023-03-04T07:51:12.762Z,3.26
2023-03-04T07:54:37.976Z,3.3
2023-03-04T07:58:03.161Z,3.35
2023-03-04T08:01:28.370Z,3.34
2023-03-04T08:04:53.552Z,3.35
2023-03-04T08:08:18.800Z,3.39
2023-03-04T08:11:43.961Z,3.42
2023-03-04T08:15:09.195Z,3.44
2023-03-04T08:18:34.365Z,3.48
2023-03-04T08:21:59.558Z,3.6
2023-03-04T08:25:24.728Z,3.7
2023-03-04T08:28:49.916Z,3.82
2023-03-04T08:32:15.280Z,3.82
2023-03-04T08:35:40.310Z,3.81
2023-03-04T08:39:05.516Z,3.84
2023-03-04T08:42:30.694Z,3.9
2023-03-04T08:45:55.896Z,3.99
2023-03-04T08:49:21.024Z,4.07
2023-03-04T08:52:46.174Z,4.17
2023-03-04T08:56:11.423Z,4.25
2023-03-04T08:59:38.372Z,4.32
2023-03-04T09:03:01.794Z,4.36
2023-03-04T09:06:26.923Z,4.4
2023-03-04T09:09:52.104Z,4.44
2023-03-04T09:13:17.375Z,4.42
2023-03-04T09:16:42.595Z,4.42
2023-03-04T09:20:07.889Z,4.42
2023-03-04T09:23:33.048Z,4.51
2023-03-04T09:26:58.228Z,4.63
2023-03-04T09:30:23.460Z,4.7
2023-03-04T09:33:48.620Z,4.73
2023-03-04T09:37:13.887Z,4.75
2023-03-04T09:40:39.052Z,4.81
2023-03-04T09:44:04.232Z,4.88
2023-03-04T09:47:29.417Z,4.94
2023-03-04T09:50:54.590Z,4.9
2023-03-04T09:54:19.945Z,4.87
2023-03-04T09:57:45.013Z,4.89
2023-03-04T10:01:10.224Z,4.94
2023-03-04T10:04:35.412Z,4.98
2023-03-04T10:08:00.620Z,5.06
2023-03-04T10:11:25.852Z,5.11
2023-03-04T10:14:51.042Z,5.2
2023-03-04T10:18:16.244Z,5.28
2023-03-04T10:21:41.405Z,5.32
2023-03-04T10:25:06.542Z,5.34
2023-03-04T10:28:31.776Z,5.34
2023-03-04T10:31:57.075Z,5.33
2023-03-04T10:35:22.186Z,5.32
2023-03-04T10:38:47.315Z,5.35
2023-03-04T10:42:12.564Z,5.41
2023-03-04T10:45:37.675Z,5.5
2023-03-04T10:49:02.853Z,5.56
2023-03-04T10:52:28.018Z,5.59
2023-03-04T10:55:53.190Z,5.63
2023-03-04T10:59:18.359Z,5.65
2023-03-04T11:02:43.535Z,5.65
2023-03-04T11:06:08.753Z,5.61
2023-03-04T11:09:33.957Z,5.65
2023-03-04T11:12:59.238Z,5.72
2023-03-04T11:16:24.412Z,5.78
2023-03-04T11:19:49.618Z,5.85
2023-03-04T11:23:14.815Z,5.88
2023-03-04T11:26:39.984Z,5.9
2023-03-04T11:30:05.187Z,5.92
2023-03-04T11:33:30.325Z,5.99
2023-03-04T11:36:55.511Z,6.06
2023-03-04T11:40:22.745Z,6.07
2023-03-04T11:43:45.816Z,6.09
2023-03-04T11:47:10.973Z,6.18
2023-03-04T11:50:36.101Z,6.18
2023-03-04T11:54:01.273Z,6.15
2023-03-04T11:57:26.399Z,6.12
2023-03-04T12:00:51.562Z,6.12
2023-03-04T12:04:17.572Z,6.07
2023-03-04T12:07:41.830Z,6.04
2023-03-04T12:11:07.007Z,6.01
2023-03-04T12:14:32.129Z,6.03
2023-03-04T12:17:57.274Z,6.04
2023-03-04T12:21:22.409Z,6.03
2023-03-04T12:24:47.575Z,6.02
2023-03-04T12:28:12.757Z,6.04
2023-03-04T12:31:38.002Z,6.07
2023-03-04T12:35:03.025Z,6.1
2023-03-04T12:38:28.171Z,6.16
2023-03-04T12:41:53.348Z,6.2
2023-03-04T12:45:18.528Z,6.18
2023-03-04T12:48:43.694Z,6.17
2023-03-04T12:52:08.852Z,6.23
2023-03-04T12:55:34.001Z,6.28
2023-03-04T12:58:59.165Z,6.34
2023-03-04T13:02:24.441Z,6.35
2023-03-04T13:05:49.587Z,6.31
2023-03-04T13:09:14.741Z,6.25
2023-03-04T13:12:39.946Z,6.21
2023-03-04T13:16:05.174Z,6.12
2023-03-04T13:19:30.382Z,6.13
2023-03-04T13:22:55.606Z,6.15
2023-03-04T13:26:20.729Z,6.13
2023-03-04T13:29:45.897Z,6.1
2023-03-04T13:33:11.137Z,6.06
2023-03-04T13:36:36.302Z,6.07
2023-03-04T13:40:01.466Z,6.08
2023-03-04T13:43:26.657Z,6.05
2023-03-04T13:46:51.849Z,6.08
2023-03-04T13:50:17.012Z,6.09
2023-03-04T13:53:42.177Z,6.1
2023-03-04T13:57:07.402Z,6.14
2023-03-04T14:00:32.617Z,6.23
2023-03-04T14:03:57.789Z,6.25
2023-03-04T14:07:22.953Z,6.16
2023-03-04T14:10:48.257Z,6.11
2023-03-04T14:14:13.286Z,6.12
2023-03-04T14:17:38.470Z,6.14
2023-03-04T14:21:03.671Z,6.17
2023-03-04T14:24:28.829Z,6.21
2023-03-04T14:27:54.017Z,6.28
2023-03-04T14:31:19.232Z,6.35
2023-03-04T15:04:01.191Z,3.97
2023-03-04T15:07:26.316Z,4.94
2023-03-04T15:10:51.734Z,5.18
2023-03-04T15:14:16.993Z,5.39
2023-03-04T15:17:42.343Z,5.63
2023-03-04T15:21:07.509Z,5.82
2023-03-04T15:24:32.687Z,5.98
2023-03-04T15:27:57.893Z,6.15
2023-03-04T15:31:23.048Z,6.31
2023-03-04T15:34:48.234Z,6.44
2023-03-04T15:38:13.444Z,6.52
2023-03-04T15:41:38.614Z,6.56
2023-03-04T15:45:03.794Z,6.52
2023-03-04T15:48:29.003Z,6.46
2023-03-04T15:51:54.188Z,6.45
2023-03-04T15:55:19.430Z,6.44
2023-03-04T15:58:44.564Z,6.49
2023-03-04T16:02:09.717Z,6.52
2023-03-04T16:05:34.875Z,6.54
2023-03-04T16:09:00.034Z,6.6
2023-03-04T16:12:25.959Z,6.6
2023-03-04T16:15:51.326Z,6.55
2023-03-04T16:19:16.439Z,6.59
2023-03-04T16:22:41.744Z,6.64
2023-03-04T16:26:06.971Z,6.66
2023-03-04T16:29:32.241Z,6.66
2023-03-04T16:32:57.371Z,6.62
2023-03-04T16:36:22.597Z,6.63
2023-03-04T16:39:47.752Z,6.63
2023-03-04T16:43:12.919Z,6.66
2023-03-04T16:46:38.257Z,6.69
2023-03-04T16:50:03.359Z,6.7
2023-03-04T16:53:28.658Z,6.64
2023-03-04T16:56:53.812Z,6.6
2023-03-04T17:00:18.983Z,6.6
2023-03-04T17:03:44.162Z,6.61
2023-03-04T17:07:09.297Z,6.56
2023-03-04T17:10:34.468Z,6.53
2023-03-04T17:13:59.707Z,6.47
2023-03-04T17:17:24.868Z,6.41
2023-03-04T17:20:50.066Z,6.32
2023-03-04T17:24:15.310Z,6.29
2023-03-04T17:27:40.510Z,6.23
2023-03-04T17:31:05.848Z,6.19
2023-03-04T17:34:30.989Z,6.18
2023-03-04T17:37:56.203Z,6.24
2023-03-04T17:41:22.158Z,6.32
2023-03-04T17:44:47.338Z,6.35
2023-03-04T17:48:12.515Z,6.36
2023-03-04T17:51:37.685Z,6.34
2023-03-04T17:55:02.923Z,6.36
2023-03-04T17:58:28.081Z,6.32
2023-03-04T18:01:54.343Z,6.28
2023-03-04T18:05:18.443Z,6.25
2023-03-04T18:08:43.645Z,6.28
2023-03-04T18:12:08.891Z,6.31
2023-03-04T18:15:34.065Z,6.34
2023-03-04T18:18:59.263Z,6.38
2023-03-04T18:22:24.445Z,6.37
2023-03-04T18:25:49.642Z,6.36
2023-03-04T18:29:14.922Z,6.38
2023-03-04T18:32:51.268Z,6.39
2023-03-04T18:36:05.299Z,6.39
2023-03-04T18:39:30.470Z,6.34
2023-03-04T18:42:55.666Z,6.27
2023-03-04T18:46:20.861Z,6.16
2023-03-04T18:49:46.012Z,6.02
2023-03-04T18:53:11.187Z,5.96
2023-03-04T18:56:36.357Z,5.97
2023-03-04T19:00:01.536Z,6
2023-03-04T19:03:26.740Z,6.02
2023-03-04T19:06:51.899Z,6.05
2023-03-04T19:10:17.090Z,6.04
2023-03-04T19:13:42.279Z,5.97
2023-03-04T19:17:07.494Z,5.92
2023-03-04T19:20:32.702Z,5.87
2023-03-04T19:23:57.859Z,5.82
2023-03-04T19:27:23.085Z,5.81
2023-03-04T19:30:48.303Z,5.89
2023-03-04T19:34:13.431Z,5.94
2023-03-04T19:37:38.608Z,6.02
2023-03-04T19:41:03.788Z,6.01
2023-03-04T19:44:28.966Z,5.79
2023-03-04T19:47:54.167Z,5.64
2023-03-04T19:51:19.351Z,5.4
2023-03-04T19:54:44.529Z,5.22
2023-03-04T19:58:09.698Z,5.11
2023-03-04T20:01:34.919Z,5.06
2023-03-04T20:05:00.051Z,5.02
2023-03-04T20:08:25.202Z,4.97
2023-03-04T20:11:58.000Z,4.96
2023-03-04T20:15:16.307Z,4.92
2023-03-04T20:18:41.475Z,4.88
2023-03-04T20:22:06.617Z,4.85
2023-03-04T20:25:31.782Z,4.85
2023-03-04T20:28:56.989Z,4.86
2023-03-04T20:32:22.118Z,4.88
2023-03-04T20:35:47.355Z,4.89
2023-03-04T20:39:27.359Z,4.89
2023-03-04T20:42:37.635Z,4.88
2023-03-04T20:46:02.868Z,4.89
2023-03-04T20:49:28.030Z,4.91
2023-03-04T20:52:53.166Z,4.93
2023-03-04T20:56:18.333Z,4.98
2023-03-04T20:59:43.506Z,5.06
2023-03-04T21:03:08.713Z,5.12
2023-03-04T21:06:33.867Z,5.12
2023-03-04T21:09:59.026Z,5.12
2023-03-04T21:13:24.183Z,5.09
2023-03-04T21:16:49.314Z,5.11
2023-03-04T21:20:14.496Z,5.13
2023-03-04T21:23:39.662Z,5.16
2023-03-04T21:27:04.828Z,5.21
2023-03-04T21:30:30.014Z,5.23
2023-03-04T21:33:55.246Z,5.23
2023-03-04T21:37:20.418Z,5.17
2023-03-04T21:40:45.558Z,5.15
2023-03-04T21:44:14.569Z,5.12
2023-03-04T21:47:35.938Z,5.1
2023-03-04T21:51:01.113Z,5.02
2023-03-04T21:54:26.313Z,4.93
2023-03-04T21:57:51.454Z,4.86
2023-03-04T22:01:16.598Z,4.83
2023-03-04T22:04:41.770Z,4.8
2023-03-04T22:08:06.974Z,4.8
2023-03-04T22:11:32.171Z,4.79
2023-03-04T22:14:57.309Z,4.77
2023-03-04T22:18:22.461Z,4.72
2023-03-04T22:21:47.614Z,4.63
2023-03-04T22:25:12.798Z,4.58
2023-03-04T22:28:38.026Z,4.55
2023-03-04T22:32:03.227Z,4.5
2023-03-04T22:35:28.386Z,4.44
2023-03-04T22:38:53.511Z,4.41
2023-03-04T22:42:18.660Z,4.39
2023-03-04T22:45:43.902Z,4.43
2023-03-04T22:49:08.974Z,4.46
2023-03-04T22:52:34.120Z,4.46
2023-03-04T22:55:59.292Z,4.47
2023-03-04T22:59:24.472Z,4.45
2023-03-04T23:02:49.650Z,4.43
2023-03-04T23:06:14.785Z,4.43
2023-03-04T23:09:39.941Z,4.47
2023-03-04T23:13:05.083Z,4.56
2023-03-04T23:16:30.310Z,4.6
2023-03-04T23:19:55.433Z,4.58
2023-03-04T23:23:20.548Z,4.56
2023-03-04T23:26:45.724Z,4.58
2023-03-04T23:30:10.887Z,4.61
2023-03-04T23:33:36.102Z,4.63
2023-03-04T23:37:01.286Z,4.62
2023-03-04T23:40:26.430Z,4.56
2023-03-04T23:43:51.640Z,4.48
2023-03-04T23:47:16.780Z,4.47
2023-03-04T23:50:41.963Z,4.49
2023-03-04T23:54:07.208Z,4.49
2023-03-04T23:57:32.372Z,4.5
